sensor_id;sensor_type;location;lat;lon;timestamp;P1;durP1;ratioP1;P2;durP2;ratioP2
15474;SDS011;7839;50.462;9.678;2023-11-21T00:00:49;0.50;;;0.50;;
15474;SDS011;7839;50.462;9.678;2023-11-21T00:07:29;1.40;;;0.50;;
15474;SDS011;7839;50.462;9.678;2023-11-21T00:14:10;0.40;;;0.40;;
15474;SDS011;7839;50.462;9.678;2023-11-21T00:20:50;0.73;;;0.50;;
15474;SDS011;7839;50.462;9.678;2023-11-21T00:27:30;0.30;;;0.30;;
15474;SDS011;7839;50.462;9.678;2023-11-21T00:34:11;0.40;;;0.40;;
15474;SDS011;7839;50.462;9.678;2023-11-21T00:40:51;0.27;;;0.27;;
15474;SDS011;7839;50.462;9.678;2023-11-21T00:47:33;0.30;;;0.30;;
15474;SDS011;7839;50.462;9.678;2023-11-21T00:54:13;0.30;;;0.30;;
15474;SDS011;7839;50.462;9.678;2023-11-21T01:00:53;0.30;;;0.30;;
15474;SDS011;7839;50.462;9.678;2023-11-21T01:07:33;0.20;;;0.20;;
15474;SDS011;7839;50.462;9.678;2023-11-21T01:14:13;2.43;;;0.70;;
15474;SDS011;7839;50.462;9.678;2023-11-21T01:20:53;0.10;;;0.10;;
15474;SDS011;7839;50.462;9.678;2023-11-21T01:27:34;0.20;;;0.20;;
15474;SDS011;7839;50.462;9.678;2023-11-21T01:34:15;0.20;;;0.20;;
15474;SDS011;7839;50.462;9.678;2023-11-21T01:40:55;0.10;;;0.10;;
15474;SDS011;7839;50.462;9.678;2023-11-21T01:47:35;0.17;;;0.17;;
15474;SDS011;7839;50.462;9.678;2023-11-21T01:54:16;0.20;;;0.20;;
15474;SDS011;7839;50.462;9.678;2023-11-21T02:00:57;0.20;;;0.20;;
15474;SDS011;7839;50.462;9.678;2023-11-21T02:07:41;0.93;;;0.93;;
15474;SDS011;7839;50.462;9.678;2023-11-21T02:14:22;3.43;;;1.47;;
15474;SDS011;7839;50.462;9.678;2023-11-21T02:21:03;1.40;;;1.30;;
15474;SDS011;7839;50.462;9.678;2023-11-21T02:27:44;0.30;;;0.30;;
15474;SDS011;7839;50.462;9.678;2023-11-21T02:34:28;0.30;;;0.30;;
15474;SDS011;7839;50.462;9.678;2023-11-21T02:41:08;0.30;;;0.30;;
15474;SDS011;7839;50.462;9.678;2023-11-21T02:47:48;2.57;;;1.43;;
15474;SDS011;7839;50.462;9.678;2023-11-21T02:54:33;1.73;;;1.50;;
15474;SDS011;7839;50.462;9.678;2023-11-21T03:01:16;0.83;;;0.40;;
15474;SDS011;7839;50.462;9.678;2023-11-21T03:07:56;0.20;;;0.20;;
15474;SDS011;7839;50.462;9.678;2023-11-21T03:14:37;0.30;;;0.30;;
15474;SDS011;7839;50.462;9.678;2023-11-21T03:21:17;0.30;;;0.30;;
15474;SDS011;7839;50.462;9.678;2023-11-21T03:27:57;0.17;;;0.13;;
15474;SDS011;7839;50.462;9.678;2023-11-21T03:34:52;0.30;;;0.30;;
15474;SDS011;7839;50.462;9.678;2023-11-21T03:41:32;0.27;;;0.27;;
15474;SDS011;7839;50.462;9.678;2023-11-21T03:48:14;0.10;;;0.10;;
15474;SDS011;7839;50.462;9.678;2023-11-21T03:54:54;0.50;;;0.33;;
15474;SDS011;7839;50.462;9.678;2023-11-21T04:01:35;0.30;;;0.30;;
15474;SDS011;7839;50.462;9.678;2023-11-21T04:08:15;0.20;;;0.20;;
15474;SDS011;7839;50.462;9.678;2023-11-21T04:14:55;0.30;;;0.30;;
15474;SDS011;7839;50.462;9.678;2023-11-21T04:21:36;0.20;;;0.20;;
15474;SDS011;7839;50.462;9.678;2023-11-21T04:28:16;0.20;;;0.20;;
15474;SDS011;7839;50.462;9.678;2023-11-21T04:34:56;0.40;;;0.40;;
15474;SDS011;7839;50.462;9.678;2023-11-21T04:41:36;0.50;;;0.33;;
15474;SDS011;7839;50.462;9.678;2023-11-21T04:48:19;0.13;;;0.13;;
15474;SDS011;7839;50.462;9.678;2023-11-21T04:54:59;0.13;;;0.13;;
15474;SDS011;7839;50.462;9.678;2023-11-21T05:01:41;0.20;;;0.20;;
15474;SDS011;7839;50.462;9.678;2023-11-21T05:08:21;0.10;;;0.10;;
15474;SDS011;7839;50.462;9.678;2023-11-21T05:15:03;2.00;;;1.70;;
15474;SDS011;7839;50.462;9.678;2023-11-21T05:21:47;3.03;;;2.83;;
15474;SDS011;7839;50.462;9.678;2023-11-21T05:28:27;4.23;;;3.73;;
15474;SDS011;7839;50.462;9.678;2023-11-21T05:35:07;19.73;;;5.70;;
15474;SDS011;7839;50.462;9.678;2023-11-21T05:41:51;7.70;;;5.20;;
15474;SDS011;7839;50.462;9.678;2023-11-21T05:48:32;8.03;;;6.33;;
15474;SDS011;7839;50.462;9.678;2023-11-21T05:55:12;9.80;;;6.33;;
15474;SDS011;7839;50.462;9.678;2023-11-21T06:01:52;6.90;;;5.50;;
15474;SDS011;7839;50.462;9.678;2023-11-21T06:08:33;6.07;;;5.33;;
15474;SDS011;7839;50.462;9.678;2023-11-21T06:15:14;7.13;;;5.43;;
15474;SDS011;7839;50.462;9.678;2023-11-21T06:21:54;7.57;;;5.73;;
15474;SDS011;7839;50.462;9.678;2023-11-21T06:28:34;6.10;;;5.50;;
15474;SDS011;7839;50.462;9.678;2023-11-21T06:35:15;9.20;;;4.60;;
15474;SDS011;7839;50.462;9.678;2023-11-21T06:41:55;2.50;;;2.30;;
15474;SDS011;7839;50.462;9.678;2023-11-21T06:48:36;7.13;;;4.87;;
15474;SDS011;7839;50.462;9.678;2023-11-21T06:55:18;7.20;;;6.30;;
15474;SDS011;7839;50.462;9.678;2023-11-21T07:01:58;2.43;;;2.27;;
15474;SDS011;7839;50.462;9.678;2023-11-21T07:08:38;7.13;;;5.23;;
15474;SDS011;7839;50.462;9.678;2023-11-21T07:15:19;6.10;;;5.40;;
15474;SDS011;7839;50.462;9.678;2023-11-21T07:21:59;6.53;;;4.63;;
15474;SDS011;7839;50.462;9.678;2023-11-21T07:28:39;2.17;;;1.97;;
15474;SDS011;7839;50.462;9.678;2023-11-21T07:35:20;2.00;;;1.80;;
15474;SDS011;7839;50.462;9.678;2023-11-21T07:42:00;4.40;;;4.00;;
15474;SDS011;7839;50.462;9.678;2023-11-21T07:48:40;1.67;;;1.57;;
15474;SDS011;7839;50.462;9.678;2023-11-21T07:55:21;1.33;;;1.13;;
15474;SDS011;7839;50.462;9.678;2023-11-21T08:02:02;1.43;;;1.33;;
15474;SDS011;7839;50.462;9.678;2023-11-21T08:08:42;1.40;;;1.30;;
15474;SDS011;7839;50.462;9.678;2023-11-21T08:15:22;1.30;;;1.20;;
15474;SDS011;7839;50.462;9.678;2023-11-21T08:22:03;6.33;;;4.47;;
15474;SDS011;7839;50.462;9.678;2023-11-21T08:28:43;8.37;;;6.37;;
15474;SDS011;7839;50.462;9.678;2023-11-21T08:35:24;6.30;;;5.70;;
15474;SDS011;7839;50.462;9.678;2023-11-21T08:42:04;7.30;;;5.60;;
15474;SDS011;7839;50.462;9.678;2023-11-21T08:48:44;7.13;;;6.40;;
15474;SDS011;7839;50.462;9.678;2023-11-21T08:55:25;7.50;;;5.83;;
15474;SDS011;7839;50.462;9.678;2023-11-21T09:02:05;13.77;;;7.43;;
15474;SDS011;7839;50.462;9.678;2023-11-21T09:08:45;8.80;;;6.40;;
15474;SDS011;7839;50.462;9.678;2023-11-21T09:15:26;7.77;;;5.23;;
15474;SDS011;7839;50.462;9.678;2023-11-21T09:22:06;4.93;;;3.47;;
15474;SDS011;7839;50.462;9.678;2023-11-21T09:28:46;9.07;;;5.13;;
15474;SDS011;7839;50.462;9.678;2023-11-21T09:35:27;9.93;;;5.20;;
15474;SDS011;7839;50.462;9.678;2023-11-21T09:42:12;8.00;;;5.63;;
15474;SDS011;7839;50.462;9.678;2023-11-21T09:48:52;9.47;;;7.20;;
15474;SDS011;7839;50.462;9.678;2023-11-21T09:55:34;9.00;;;6.87;;
15474;SDS011;7839;50.462;9.678;2023-11-21T10:02:16;11.23;;;7.73;;
15474;SDS011;7839;50.462;9.678;2023-11-21T10:08:58;10.37;;;7.70;;
15474;SDS011;7839;50.462;9.678;2023-11-21T10:15:39;12.67;;;7.30;;
15474;SDS011;7839;50.462;9.678;2023-11-21T10:22:24;10.17;;;7.83;;
15474;SDS011;7839;50.462;9.678;2023-11-21T10:29:04;13.73;;;9.10;;
15474;SDS011;7839;50.462;9.678;2023-11-21T10:35:45;11.43;;;8.00;;
15474;SDS011;7839;50.462;9.678;2023-11-21T10:42:32;13.40;;;6.63;;
15474;SDS011;7839;50.462;9.678;2023-11-21T10:49:12;13.20;;;7.00;;
15474;SDS011;7839;50.462;9.678;2023-11-21T10:55:59;11.07;;;7.53;;
15474;SDS011;7839;50.462;9.678;2023-11-21T11:02:40;11.80;;;7.93;;
15474;SDS011;7839;50.462;9.678;2023-11-21T11:09:21;9.67;;;6.43;;
15474;SDS011;7839;50.462;9.678;2023-11-21T11:16:02;9.40;;;6.20;;
15474;SDS011;7839;50.462;9.678;2023-11-21T11:22:48;8.60;;;5.53;;
15474;SDS011;7839;50.462;9.678;2023-11-21T11:29:35;9.70;;;4.47;;
15474;SDS011;7839;50.462;9.678;2023-11-21T11:36:34;8.93;;;5.40;;
15474;SDS011;7839;50.462;9.678;2023-11-21T11:43:24;13.87;;;9.13;;
15474;SDS011;7839;50.462;9.678;2023-11-21T11:50:06;11.63;;;7.87;;
15474;SDS011;7839;50.462;9.678;2023-11-21T11:56:47;13.40;;;7.70;;
15474;SDS011;7839;50.462;9.678;2023-11-21T12:03:27;10.07;;;5.77;;
15474;SDS011;7839;50.462;9.678;2023-11-21T12:10:07;11.97;;;6.77;;
15474;SDS011;7839;50.462;9.678;2023-11-21T12:16:51;9.47;;;6.07;;
15474;SDS011;7839;50.462;9.678;2023-11-21T12:23:32;9.83;;;6.03;;
15474;SDS011;7839;50.462;9.678;2023-11-21T12:30:12;11.68;;;6.20;;
15474;SDS011;7839;50.462;9.678;2023-11-21T12:36:56;8.43;;;5.63;;
15474;SDS011;7839;50.462;9.678;2023-11-21T12:43:37;11.07;;;5.60;;
15474;SDS011;7839;50.462;9.678;2023-11-21T12:50:19;11.57;;;8.70;;
15474;SDS011;7839;50.462;9.678;2023-11-21T12:57:03;14.87;;;7.30;;
15474;SDS011;7839;50.462;9.678;2023-11-21T13:03:48;10.63;;;7.63;;
15474;SDS011;7839;50.462;9.678;2023-11-21T13:10:31;10.17;;;6.77;;
15474;SDS011;7839;50.462;9.678;2023-11-21T13:17:11;10.17;;;5.20;;
15474;SDS011;7839;50.462;9.678;2023-11-21T13:23:52;5.90;;;4.87;;
15474;SDS011;7839;50.462;9.678;2023-11-21T13:30:34;11.93;;;5.63;;
15474;SDS011;7839;50.462;9.678;2023-11-21T13:37:14;8.93;;;6.33;;
15474;SDS011;7839;50.462;9.678;2023-11-21T13:43:54;11.07;;;6.80;;
15474;SDS011;7839;50.462;9.678;2023-11-21T13:50:43;10.43;;;7.50;;
15474;SDS011;7839;50.462;9.678;2023-11-21T13:57:41;9.77;;;6.40;;
15474;SDS011;7839;50.462;9.678;2023-11-21T14:04:25;11.83;;;7.40;;
15474;SDS011;7839;50.462;9.678;2023-11-21T14:11:26;11.00;;;6.87;;
15474;SDS011;7839;50.462;9.678;2023-11-21T14:18:07;13.33;;;8.40;;
15474;SDS011;7839;50.462;9.678;2023-11-21T14:24:50;10.80;;;7.93;;
15474;SDS011;7839;50.462;9.678;2023-11-21T14:31:32;14.60;;;8.33;;
15474;SDS011;7839;50.462;9.678;2023-11-21T14:38:12;11.43;;;8.20;;
15474;SDS011;7839;50.462;9.678;2023-11-21T14:44:54;14.17;;;9.70;;
15474;SDS011;7839;50.462;9.678;2023-11-21T14:51:39;9.90;;;7.50;;
15474;SDS011;7839;50.462;9.678;2023-11-21T14:58:40;13.67;;;8.90;;
15474;SDS011;7839;50.462;9.678;2023-11-21T15:05:20;12.27;;;7.97;;
15474;SDS011;7839;50.462;9.678;2023-11-21T15:12:01;9.43;;;7.07;;
15474;SDS011;7839;50.462;9.678;2023-11-21T15:18:54;13.83;;;9.50;;
15474;SDS011;7839;50.462;9.678;2023-11-21T15:25:34;5.13;;;4.03;;
15474;SDS011;7839;50.462;9.678;2023-11-21T15:32:15;11.60;;;6.93;;
15474;SDS011;7839;50.462;9.678;2023-11-21T15:38:55;13.50;;;8.80;;
15474;SDS011;7839;50.462;9.678;2023-11-21T15:45:35;12.85;;;9.07;;
15474;SDS011;7839;50.462;9.678;2023-11-21T15:52:16;11.93;;;8.33;;
15474;SDS011;7839;50.462;9.678;2023-11-21T15:58:56;16.30;;;8.53;;
15474;SDS011;7839;50.462;9.678;2023-11-21T16:05:36;15.37;;;9.47;;
15474;SDS011;7839;50.462;9.678;2023-11-21T16:12:16;13.73;;;9.13;;
15474;SDS011;7839;50.462;9.678;2023-11-21T16:18:58;13.37;;;9.10;;
15474;SDS011;7839;50.462;9.678;2023-11-21T16:25:38;16.13;;;8.97;;
15474;SDS011;7839;50.462;9.678;2023-11-21T16:32:18;13.50;;;8.90;;
15474;SDS011;7839;50.462;9.678;2023-11-21T16:39:00;13.33;;;8.40;;
15474;SDS011;7839;50.462;9.678;2023-11-21T16:45:40;14.70;;;7.63;;
15474;SDS011;7839;50.462;9.678;2023-11-21T16:52:20;12.00;;;8.37;;
15474;SDS011;7839;50.462;9.678;2023-11-21T16:59:02;9.07;;;6.20;;
15474;SDS011;7839;50.462;9.678;2023-11-21T17:05:43;6.43;;;4.93;;
15474;SDS011;7839;50.462;9.678;2023-11-21T17:12:23;6.53;;;5.07;;
15474;SDS011;7839;50.462;9.678;2023-11-21T17:19:04;5.93;;;4.67;;
15474;SDS011;7839;50.462;9.678;2023-11-21T17:25:44;3.03;;;2.73;;
15474;SDS011;7839;50.462;9.678;2023-11-21T17:32:24;1.60;;;1.50;;
15474;SDS011;7839;50.462;9.678;2023-11-21T17:39:04;5.23;;;4.73;;
15474;SDS011;7839;50.462;9.678;2023-11-21T17:45:50;5.60;;;5.10;;
15474;SDS011;7839;50.462;9.678;2023-11-21T17:52:31;4.40;;;4.03;;
15474;SDS011;7839;50.462;9.678;2023-11-21T17:59:12;2.97;;;2.70;;
15474;SDS011;7839;50.462;9.678;2023-11-21T18:05:56;3.80;;;3.40;;
15474;SDS011;7839;50.462;9.678;2023-11-21T18:12:37;4.13;;;3.23;;
15474;SDS011;7839;50.462;9.678;2023-11-21T18:19:17;4.10;;;3.70;;
15474;SDS011;7839;50.462;9.678;2023-11-21T18:25:59;4.20;;;3.70;;
15474;SDS011;7839;50.462;9.678;2023-11-21T18:32:39;5.83;;;4.50;;
15474;SDS011;7839;50.462;9.678;2023-11-21T18:39:19;6.20;;;4.97;;
15474;SDS011;7839;50.462;9.678;2023-11-21T18:46:02;5.27;;;4.77;;
15474;SDS011;7839;50.462;9.678;2023-11-21T18:52:43;5.70;;;4.27;;
15474;SDS011;7839;50.462;9.678;2023-11-21T18:59:23;5.77;;;4.13;;
15474;SDS011;7839;50.462;9.678;2023-11-21T19:06:04;4.77;;;4.37;;
15474;SDS011;7839;50.462;9.678;2023-11-21T19:12:44;4.00;;;3.60;;
15474;SDS011;7839;50.462;9.678;2023-11-21T19:19:24;4.10;;;3.57;;
15474;SDS011;7839;50.462;9.678;2023-11-21T19:26:04;4.20;;;3.80;;
15474;SDS011;7839;50.462;9.678;2023-11-21T19:32:44;8.67;;;5.00;;
15474;SDS011;7839;50.462;9.678;2023-11-21T19:39:25;6.47;;;5.00;;
15474;SDS011;7839;50.462;9.678;2023-11-21T19:46:05;5.03;;;4.53;;
15474;SDS011;7839;50.462;9.678;2023-11-21T19:52:46;5.40;;;4.73;;
15474;SDS011;7839;50.462;9.678;2023-11-21T19:59:26;6.40;;;4.33;;
15474;SDS011;7839;50.462;9.678;2023-11-21T20:06:06;6.30;;;4.77;;
15474;SDS011;7839;50.462;9.678;2023-11-21T20:12:47;4.97;;;4.33;;
15474;SDS011;7839;50.462;9.678;2023-11-21T20:19:27;4.43;;;4.03;;
15474;SDS011;7839;50.462;9.678;2023-11-21T20:26:09;4.30;;;3.80;;
15474;SDS011;7839;50.462;9.678;2023-11-21T20:32:49;4.87;;;4.37;;
15474;SDS011;7839;50.462;9.678;2023-11-21T20:39:32;3.63;;;3.17;;
15474;SDS011;7839;50.462;9.678;2023-11-21T20:46:16;4.80;;;3.90;;
15474;SDS011;7839;50.462;9.678;2023-11-21T20:52:56;3.27;;;2.93;;
15474;SDS011;7839;50.462;9.678;2023-11-21T20:59:37;3.87;;;3.57;;
15474;SDS011;7839;50.462;9.678;2023-11-21T21:06:17;4.07;;;3.50;;
15474;SDS011;7839;50.462;9.678;2023-11-21T21:12:57;5.20;;;3.70;;
15474;SDS011;7839;50.462;9.678;2023-11-21T21:19:38;4.57;;;4.17;;
15474;SDS011;7839;50.462;9.678;2023-11-21T21:26:18;4.70;;;3.70;;
15474;SDS011;7839;50.462;9.678;2023-11-21T21:33:00;4.10;;;3.70;;
15474;SDS011;7839;50.462;9.678;2023-11-21T21:39:41;3.93;;;3.53;;
15474;SDS011;7839;50.462;9.678;2023-11-21T21:46:22;4.00;;;3.10;;
15474;SDS011;7839;50.462;9.678;2023-11-21T21:53:03;4.53;;;2.90;;
15474;SDS011;7839;50.462;9.678;2023-11-21T21:59:45;4.23;;;2.87;;
15474;SDS011;7839;50.462;9.678;2023-11-21T22:06:28;3.13;;;2.80;;
15474;SDS011;7839;50.462;9.678;2023-11-21T22:13:09;4.97;;;3.23;;
15474;SDS011;7839;50.462;9.678;2023-11-21T22:19:49;3.97;;;2.60;;
15474;SDS011;7839;50.462;9.678;2023-11-21T22:26:29;3.50;;;2.97;;
15474;SDS011;7839;50.462;9.678;2023-11-21T22:33:09;16.83;;;7.47;;
15474;SDS011;7839;50.462;9.678;2023-11-21T22:39:49;2.33;;;2.13;;
15474;SDS011;7839;50.462;9.678;2023-11-21T22:46:31;2.83;;;2.60;;
15474;SDS011;7839;50.462;9.678;2023-11-21T22:53:11;4.60;;;2.93;;
15474;SDS011;7839;50.462;9.678;2023-11-21T22:59:51;2.83;;;2.53;;
15474;SDS011;7839;50.462;9.678;2023-11-21T23:06:32;3.50;;;2.60;;
15474;SDS011;7839;50.462;9.678;2023-11-21T23:13:12;2.33;;;2.13;;
15474;SDS011;7839;50.462;9.678;2023-11-21T23:19:53;2.83;;;2.53;;
15474;SDS011;7839;50.462;9.678;2023-11-21T23:26:33;3.70;;;2.50;;
15474;SDS011;7839;50.462;9.678;2023-11-21T23:33:14;2.47;;;2.27;;
15474;SDS011;7839;50.462;9.678;2023-11-21T23:39:54;5.07;;;2.40;;
15474;SDS011;7839;50.462;9.678;2023-11-21T23:46:34;2.47;;;2.27;;
15474;SDS011;7839;50.462;9.678;2023-11-21T23:53:15;3.30;;;2.47;;
15474;SDS011;7839;50.462;9.678;2023-11-21T23:59:55;3.83;;;2.47;;
